createdAt,value
2023-04-18T00:02:06.995Z,20.10
2023-04-18T00:04:35.867Z,20.58
2023-04-18T00:07:04.413Z,20.19
2023-04-18T00:09:32.850Z,18.67
2023-04-18T00:12:02.102Z,19.78
2023-04-18T00:14:30.712Z,18.87
2023-04-18T00:16:59.194Z,19.06
2023-04-18T00:19:27.815Z,18.32
2023-04-18T00:21:58.040Z,18.53
2023-04-18T00:24:26.503Z,19.57
2023-04-18T00:26:55.042Z,19.61
2023-04-18T00:29:23.431Z,20.34
2023-04-18T00:31:51.824Z,20.50
2023-04-18T00:34:20.398Z,19.82
2023-04-18T00:36:48.739Z,18.94
2023-04-18T00:39:17.143Z,19.46
2023-04-18T00:41:45.521Z,19.17
2023-04-18T00:44:14.149Z,19.35
2023-04-18T00:46:42.909Z,19.28
2023-04-18T00:49:11.808Z,20.66
2023-04-18T00:51:40.797Z,18.99
2023-04-18T00:54:11.254Z,18.83
2023-04-18T00:56:39.819Z,19.26
2023-04-18T00:59:09.875Z,18.74
2023-04-18T01:01:40.289Z,19.25
2023-04-18T01:04:09.377Z,19.29
2023-04-18T01:06:38.076Z,17.84
2023-04-18T01:09:06.660Z,19.82
2023-04-18T01:11:35.998Z,20.07
2023-04-18T01:14:06.509Z,18.36
2023-04-18T01:16:35.024Z,18.57
2023-04-18T01:19:04.862Z,18.58
2023-04-18T01:21:37.326Z,17.89
2023-04-18T01:24:12.278Z,18.75
2023-04-18T01:26:43.641Z,19.73
2023-04-18T01:29:12.223Z,17.77
2023-04-18T01:31:41.148Z,18.70
2023-04-18T01:34:09.786Z,17.29
2023-04-18T01:36:39.063Z,17.79
2023-04-18T01:39:07.566Z,17.35
2023-04-18T01:41:36.584Z,16.28
2023-04-18T01:44:05.352Z,18.07
2023-04-18T01:46:34.193Z,18.46
2023-04-18T01:49:02.732Z,18.73
2023-04-18T01:51:31.602Z,19.34
2023-04-18T01:54:00.157Z,17.97
2023-04-18T01:56:28.556Z,17.13
2023-04-18T01:58:57.188Z,17.57
2023-04-18T02:01:25.712Z,17.26
2023-04-18T02:03:54.514Z,17.56
2023-04-18T02:06:23.114Z,17.51
2023-04-18T02:08:51.521Z,17.38
2023-04-18T02:11:19.998Z,17.06
2023-04-18T02:13:48.628Z,17.56
2023-04-18T02:16:17.068Z,17.61
2023-04-18T02:18:45.820Z,16.32
2023-04-18T02:21:14.205Z,17.32
2023-04-18T02:23:42.693Z,15.44
2023-04-18T02:26:11.305Z,16.24
2023-04-18T02:28:39.756Z,17.09
2023-04-18T02:31:14.330Z,16.89
2023-04-18T02:33:43.869Z,16.99
2023-04-18T02:36:12.989Z,17.79
2023-04-18T02:38:41.477Z,16.50
2023-04-18T02:41:14.898Z,17.46
2023-04-18T02:43:43.597Z,17.42
2023-04-18T02:46:12.433Z,15.94
2023-04-18T02:48:41.049Z,16.20
2023-04-18T02:51:09.710Z,16.84
2023-04-18T02:53:38.174Z,16.10
2023-04-18T02:56:07.208Z,16.18
2023-04-18T02:58:36.439Z,16.87
2023-04-18T03:01:05.035Z,16.86
2023-04-18T03:03:33.612Z,16.87
2023-04-18T03:06:02.088Z,17.04
2023-04-18T03:08:30.628Z,17.97
2023-04-18T03:10:59.138Z,16.21
2023-04-18T03:13:27.657Z,16.34
2023-04-18T03:15:56.358Z,16.82
2023-04-18T03:18:25.001Z,16.38
2023-04-18T03:20:53.408Z,16.11
2023-04-18T03:23:22.029Z,16.58
2023-04-18T03:25:50.544Z,16.09
2023-04-18T03:28:19.045Z,15.91
2023-04-18T03:30:47.673Z,16.78
2023-04-18T03:33:17.166Z,16.77
2023-04-18T03:35:45.678Z,16.37
2023-04-18T03:38:14.141Z,17.30
2023-04-18T03:40:44.462Z,16.84
2023-04-18T03:43:12.855Z,16.82
2023-04-18T03:45:41.244Z,17.15
2023-04-18T03:48:09.734Z,17.12
2023-04-18T03:50:38.225Z,15.35
2023-04-18T03:53:06.745Z,16.64
2023-04-18T03:55:35.497Z,17.99
2023-04-18T03:58:04.087Z,17.30
2023-04-18T04:00:32.522Z,15.57
2023-04-18T04:03:01.824Z,14.72
2023-04-18T04:05:30.716Z,15.84
2023-04-18T04:07:59.275Z,14.24
2023-04-18T04:10:27.748Z,14.98
2023-04-18T04:12:56.399Z,15.00
2023-04-18T04:15:24.906Z,14.76
2023-04-18T04:17:53.673Z,15.23
2023-04-18T04:20:25.751Z,16.23
2023-04-18T04:22:55.209Z,15.79
2023-04-18T04:25:28.441Z,16.47
2023-04-18T04:27:56.933Z,16.18
2023-04-18T04:30:25.419Z,16.04
2023-04-18T04:32:55.059Z,16.68
2023-04-18T04:35:23.612Z,16.80
2023-04-18T04:37:53.152Z,15.92
2023-04-18T04:40:23.018Z,14.64
2023-04-18T04:42:54.155Z,16.23
2023-04-18T04:45:24.076Z,15.95
2023-04-18T04:47:52.713Z,16.99
2023-04-18T04:50:21.268Z,14.68
2023-04-18T04:52:49.883Z,17.07
2023-04-18T04:55:18.998Z,15.99
2023-04-18T04:57:47.720Z,16.36
2023-04-18T05:00:20.801Z,15.56
2023-04-18T05:02:49.766Z,15.71
2023-04-18T05:05:18.796Z,13.77
2023-04-18T05:07:47.393Z,16.29
2023-04-18T05:10:15.877Z,13.72
2023-04-18T05:12:44.589Z,15.74
2023-04-18T05:15:15.225Z,14.70
2023-04-18T05:17:43.741Z,15.01
2023-04-18T05:20:13.348Z,16.31
2023-04-18T05:22:41.814Z,14.84
2023-04-18T05:25:10.357Z,15.20
2023-04-18T05:27:38.945Z,15.97
2023-04-18T05:30:07.984Z,15.90
2023-04-18T05:32:39.014Z,15.11
2023-04-18T05:35:08.125Z,15.86
2023-04-18T05:37:36.795Z,15.91
2023-04-18T05:40:06.755Z,14.64
2023-04-18T05:42:35.239Z,15.40
2023-04-18T05:45:03.933Z,16.28
2023-04-18T05:47:33.474Z,15.92
2023-04-18T05:50:02.015Z,15.71
2023-04-18T05:52:31.191Z,15.98
2023-04-18T05:54:59.683Z,15.46
2023-04-18T05:57:28.135Z,16.84
2023-04-18T05:59:56.608Z,15.51
2023-04-18T06:02:25.745Z,15.57
2023-04-18T06:04:54.609Z,14.63
2023-04-18T06:07:25.337Z,16.04
2023-04-18T06:09:54.094Z,14.53
2023-04-18T06:12:22.568Z,15.85
2023-04-18T06:14:51.171Z,16.18
2023-04-18T06:17:19.702Z,16.27
2023-04-18T06:19:48.134Z,15.79
2023-04-18T06:22:16.678Z,15.64
2023-04-18T06:24:45.133Z,16.45
2023-04-18T06:27:27.999Z,17.88
2023-04-18T06:29:59.198Z,18.06
2023-04-18T06:32:28.085Z,16.85
2023-04-18T06:34:56.652Z,16.43
2023-04-18T06:37:25.212Z,16.42
2023-04-18T06:39:53.750Z,15.99
2023-04-18T06:42:22.773Z,15.69
2023-04-18T06:44:51.449Z,16.45
2023-04-18T06:47:20.039Z,15.76
2023-04-18T06:49:48.626Z,16.06
2023-04-18T06:52:18.181Z,16.38
2023-04-18T06:54:46.653Z,15.76
2023-04-18T06:57:15.889Z,17.61
2023-04-18T06:59:44.376Z,16.66
2023-04-18T07:02:13.174Z,15.62
2023-04-18T07:04:41.673Z,17.25
2023-04-18T07:07:10.170Z,17.63
2023-04-18T07:09:38.682Z,18.64
2023-04-18T07:12:07.974Z,17.26
2023-04-18T07:14:36.360Z,16.14
2023-04-18T07:17:05.146Z,17.71
2023-04-18T07:19:33.909Z,17.72
2023-04-18T07:22:02.401Z,18.17
2023-04-18T07:24:30.960Z,16.62
2023-04-18T07:26:59.449Z,17.31
2023-04-18T07:29:28.009Z,16.79
2023-04-18T07:31:56.503Z,16.67
2023-04-18T07:34:27.298Z,16.78
2023-04-18T07:36:57.270Z,17.54
2023-04-18T07:39:25.768Z,18.67
2023-04-18T07:41:54.474Z,17.50
2023-04-18T07:44:25.177Z,16.81
2023-04-18T07:46:53.563Z,17.92
2023-04-18T07:49:21.968Z,18.96
2023-04-18T07:51:50.449Z,18.15
2023-04-18T07:54:18.972Z,19.07
2023-04-18T07:56:47.430Z,19.53
2023-04-18T07:59:16.082Z,18.51
2023-04-18T08:01:44.716Z,20.36
2023-04-18T08:04:14.642Z,19.74
2023-04-18T08:06:43.425Z,18.76
2023-04-18T08:09:12.457Z,17.32
2023-04-18T08:11:42.592Z,17.68
2023-04-18T08:14:11.540Z,18.78
2023-04-18T08:16:40.211Z,18.02
2023-04-18T08:19:08.732Z,16.82
2023-04-18T08:21:37.247Z,19.40
2023-04-18T08:24:06.146Z,19.09
2023-04-18T08:26:34.660Z,20.48
2023-04-18T08:29:03.299Z,18.32
2023-04-18T08:31:31.804Z,18.33
2023-04-18T08:34:00.795Z,17.45
2023-04-18T08:36:31.515Z,18.36
2023-04-18T08:39:00.015Z,18.93
2023-04-18T08:41:34.169Z,18.90
2023-04-18T08:44:02.789Z,19.29
2023-04-18T08:46:37.228Z,19.64
2023-04-18T08:49:06.348Z,19.06
2023-04-18T08:51:36.392Z,19.66
2023-04-18T08:54:06.326Z,19.67
2023-04-18T08:56:37.426Z,20.24
2023-04-18T08:59:05.921Z,18.69
2023-04-18T09:02:09.006Z,19.33
2023-04-18T09:04:37.714Z,18.92
2023-04-18T09:07:11.000Z,18.57
2023-04-18T09:09:44.195Z,18.54
2023-04-18T09:12:26.823Z,18.45
2023-04-18T09:15:00.394Z,20.67
2023-04-18T09:17:38.074Z,21.14
2023-04-18T09:20:09.921Z,18.45
2023-04-18T09:22:48.616Z,19.86
2023-04-18T09:25:44.971Z,20.49
2023-04-18T09:28:31.862Z,21.01
2023-04-18T09:31:11.898Z,20.41
2023-04-18T09:33:52.767Z,20.42
2023-04-18T09:36:22.410Z,20.22
2023-04-18T09:38:55.326Z,18.61
2023-04-18T09:41:24.996Z,19.96
2023-04-18T09:44:12.321Z,20.67
2023-04-18T09:46:46.085Z,19.74
2023-04-18T09:49:16.895Z,18.51
2023-04-18T09:51:46.282Z,19.67
2023-04-18T09:54:16.595Z,19.95
2023-04-18T09:56:47.465Z,19.83
2023-04-18T09:59:23.966Z,20.32
2023-04-18T10:01:53.121Z,20.23
2023-04-18T10:04:22.272Z,19.75
2023-04-18T10:06:51.202Z,20.18
2023-04-18T10:09:22.060Z,20.16
2023-04-18T10:11:50.504Z,19.61
2023-04-18T10:14:19.771Z,20.15
2023-04-18T10:16:49.272Z,20.22
2023-04-18T10:19:27.376Z,20.30
2023-04-18T10:21:57.801Z,20.17
2023-04-18T10:24:45.240Z,18.60
2023-04-18T10:27:13.855Z,18.81
2023-04-18T10:29:54.338Z,20.24
2023-04-18T10:32:23.494Z,19.94
2023-04-18T10:34:55.406Z,20.67
2023-04-18T10:37:26.704Z,19.84
2023-04-18T10:40:08.019Z,19.41
2023-04-18T10:42:59.868Z,19.76
2023-04-18T10:45:30.953Z,20.56
2023-04-18T10:48:22.992Z,21.03
2023-04-18T10:51:26.840Z,21.55
2023-04-18T10:53:59.486Z,20.37
2023-04-18T10:56:29.100Z,20.89
2023-04-18T10:59:01.816Z,20.43
2023-04-18T11:01:33.052Z,20.70
2023-04-18T11:04:01.982Z,18.75
2023-04-18T11:06:31.332Z,21.46
2023-04-18T11:09:13.618Z,22.11
2023-04-18T11:11:43.369Z,18.61
2023-04-18T11:14:12.002Z,20.23
2023-04-18T11:16:40.833Z,21.03
2023-04-18T11:19:23.236Z,19.75
2023-04-18T11:21:51.747Z,18.93
2023-04-18T11:24:22.758Z,19.83
2023-04-18T11:26:55.934Z,20.66
2023-04-18T11:29:24.712Z,20.89
2023-04-18T11:31:56.596Z,20.86
2023-04-18T11:34:31.369Z,20.04
2023-04-18T11:37:00.317Z,21.05
2023-04-18T11:39:28.803Z,19.60
2023-04-18T11:41:59.202Z,20.47
2023-04-18T11:44:27.771Z,20.55
2023-04-18T11:46:56.208Z,20.19
2023-04-18T11:49:33.763Z,20.87
2023-04-18T11:52:11.265Z,20.02
2023-04-18T11:54:44.933Z,19.71
2023-04-18T11:57:21.016Z,20.97
2023-04-18T11:59:57.773Z,19.27
2023-04-18T12:02:28.310Z,20.99
2023-04-18T12:05:00.355Z,20.30
2023-04-18T12:07:36.508Z,20.73
2023-04-18T12:10:07.460Z,20.66
2023-04-18T12:12:36.358Z,21.97
2023-04-18T12:15:13.815Z,21.29
2023-04-18T12:17:48.619Z,21.14
2023-04-18T12:20:18.470Z,22.59
2023-04-18T12:22:51.467Z,20.15
2023-04-18T12:25:27.364Z,20.29
2023-04-18T12:28:01.125Z,21.89
2023-04-18T12:30:31.833Z,22.74
2023-04-18T12:33:04.450Z,20.75
2023-04-18T12:35:32.980Z,20.29
2023-04-18T12:38:02.869Z,21.70
2023-04-18T12:40:31.404Z,19.92
2023-04-18T12:43:01.470Z,21.15
2023-04-18T12:45:31.667Z,19.77
2023-04-18T12:48:00.324Z,19.44
2023-04-18T12:50:28.914Z,20.89
2023-04-18T12:52:59.562Z,21.87
2023-04-18T12:55:28.912Z,21.82
2023-04-18T12:57:58.201Z,21.51
2023-04-18T13:00:29.626Z,22.50
2023-04-18T13:02:59.208Z,23.77
2023-04-18T13:05:32.460Z,22.21
2023-04-18T13:10:33.302Z,20.91
2023-04-18T13:13:01.771Z,22.12
2023-04-18T13:15:30.254Z,22.57
2023-04-18T13:18:04.694Z,21.98
2023-04-18T13:20:34.363Z,20.50
2023-04-18T13:23:02.915Z,22.23
2023-04-18T13:25:31.593Z,20.03
2023-04-18T13:28:00.769Z,20.12
2023-04-18T13:30:29.676Z,21.96
2023-04-18T13:32:58.416Z,21.15
2023-04-18T13:35:26.941Z,21.62
2023-04-18T13:37:55.990Z,22.07
2023-04-18T13:40:25.220Z,20.78
2023-04-18T13:42:53.891Z,21.29
2023-04-18T13:45:22.356Z,21.28
2023-04-18T13:47:50.922Z,20.72
2023-04-18T13:50:20.292Z,21.96
2023-04-18T13:52:49.397Z,21.10
2023-04-18T13:55:18.698Z,21.72
2023-04-18T13:57:48.212Z,23.31
2023-04-18T14:00:17.461Z,22.88
2023-04-18T14:02:46.050Z,20.83
2023-04-18T14:05:14.762Z,21.51
2023-04-18T14:07:43.547Z,19.89
2023-04-18T14:10:12.029Z,20.91
2023-04-18T14:12:40.547Z,22.89
2023-04-18T14:15:09.632Z,23.01
2023-04-18T14:17:38.210Z,22.74
2023-04-18T14:20:07.761Z,20.35
2023-04-18T14:22:36.337Z,21.13
2023-04-18T14:25:05.407Z,21.32
2023-04-18T14:27:34.160Z,20.47
2023-04-18T14:30:03.118Z,21.30
2023-04-18T14:32:31.626Z,22.20
2023-04-18T14:35:00.265Z,22.64
2023-04-18T14:37:28.765Z,21.63
2023-04-18T14:39:57.286Z,22.36
2023-04-18T14:42:25.746Z,21.79
2023-04-18T14:44:54.484Z,21.88
2023-04-18T14:47:24.283Z,22.76
2023-04-18T14:49:52.843Z,23.14
2023-04-18T14:52:21.249Z,22.41
2023-04-18T14:54:49.650Z,22.91
2023-04-18T14:57:18.445Z,21.65
2023-04-18T14:59:46.869Z,23.49
2023-04-18T15:02:15.664Z,23.26
2023-04-18T15:04:44.341Z,24.03
2023-04-18T15:07:12.874Z,21.47
2023-04-18T15:09:41.352Z,22.92
2023-04-18T15:12:09.894Z,22.27
2023-04-18T15:14:38.431Z,22.89
2023-04-18T15:17:06.873Z,21.00
2023-04-18T15:19:35.415Z,21.27
2023-04-18T15:22:03.841Z,23.34
2023-04-18T15:24:32.339Z,22.06
2023-04-18T15:27:01.440Z,23.23
2023-04-18T15:29:29.929Z,21.29
2023-04-18T15:31:58.374Z,22.59
2023-04-18T15:34:26.946Z,23.07
2023-04-18T15:36:55.526Z,23.79
2023-04-18T15:39:24.143Z,23.38
2023-04-18T15:41:56.466Z,21.32
2023-04-18T15:44:25.172Z,20.74
2023-04-18T15:46:53.591Z,21.46
2023-04-18T15:49:21.980Z,22.90
2023-04-18T15:51:50.416Z,23.12
2023-04-18T15:54:18.890Z,22.71
2023-04-18T15:56:47.259Z,23.26
2023-04-18T15:59:15.681Z,23.58
2023-04-18T16:01:46.015Z,22.17
2023-04-18T16:04:15.338Z,20.77
2023-04-18T16:06:44.009Z,21.22
2023-04-18T16:09:12.454Z,22.07
2023-04-18T16:11:40.871Z,21.56
2023-04-18T16:14:09.404Z,23.42
2023-04-18T16:16:37.785Z,23.01
2023-04-18T16:19:06.358Z,22.24
2023-04-18T16:21:34.962Z,22.77
2023-04-18T16:24:03.572Z,23.73
2023-04-18T16:26:32.138Z,21.70
2023-04-18T16:29:00.667Z,21.95
2023-04-18T16:31:29.234Z,21.59
2023-04-18T16:33:57.780Z,22.50
2023-04-18T16:36:26.513Z,23.64
2023-04-18T16:38:54.903Z,23.88
2023-04-18T16:41:23.293Z,23.40
2023-04-18T16:43:51.779Z,23.39
2023-04-18T16:46:20.238Z,23.59
2023-04-18T16:48:51.056Z,23.20
2023-04-18T16:51:21.041Z,21.84
2023-04-18T16:53:49.819Z,22.84
2023-04-18T16:56:18.232Z,22.40
2023-04-18T16:58:46.851Z,24.00
2023-04-18T17:01:15.575Z,23.56
2023-04-18T17:03:44.496Z,22.43
2023-04-18T17:06:13.099Z,22.88
2023-04-18T17:08:41.495Z,21.45
2023-04-18T17:11:09.936Z,21.80
2023-04-18T17:13:38.453Z,23.63
2023-04-18T17:16:07.397Z,23.47
2023-04-18T17:18:35.930Z,22.12
2023-04-18T17:21:05.288Z,23.78
2023-04-18T17:23:33.820Z,22.16
2023-04-18T17:26:02.251Z,22.44
2023-04-18T17:28:30.738Z,22.04
2023-04-18T17:31:01.465Z,22.24
2023-04-18T17:33:30.562Z,23.38
2023-04-18T17:35:59.109Z,22.85
2023-04-18T17:38:27.606Z,21.41
2023-04-18T17:41:00.371Z,23.29
2023-04-18T17:43:29.191Z,22.13
2023-04-18T17:45:59.611Z,23.54
2023-04-18T17:48:28.063Z,24.29
2023-04-18T17:50:56.650Z,21.90
2023-04-18T17:53:25.198Z,22.55
2023-04-18T17:55:55.240Z,22.85
2023-04-18T17:58:23.654Z,22.05
2023-04-18T18:00:53.519Z,22.58
2023-04-18T18:03:22.379Z,23.27
2023-04-18T18:05:51.906Z,22.72
2023-04-18T18:08:21.641Z,23.00
2023-04-18T18:10:50.226Z,23.23
2023-04-18T18:13:18.735Z,21.83
2023-04-18T18:15:47.308Z,23.01
2023-04-18T18:18:15.871Z,23.55
2023-04-18T18:20:44.454Z,21.98
2023-04-18T18:23:12.833Z,22.23
2023-04-18T18:25:41.578Z,21.39
2023-04-18T18:28:10.153Z,20.45
2023-04-18T18:30:38.765Z,20.75
2023-04-18T18:33:07.273Z,21.55
2023-04-18T18:35:36.444Z,21.72
2023-04-18T18:38:04.940Z,22.22
2023-04-18T18:40:33.432Z,21.23
2023-04-18T18:43:01.976Z,21.73
2023-04-18T18:45:30.427Z,21.60
2023-04-18T18:47:58.954Z,20.81
2023-04-18T18:50:27.624Z,21.96
2023-04-18T18:52:56.119Z,21.64
2023-04-18T18:55:24.598Z,20.33
2023-04-18T18:57:54.069Z,22.20
2023-04-18T19:00:22.696Z,22.45
2023-04-18T19:02:51.371Z,22.97
2023-04-18T19:05:19.989Z,21.16
2023-04-18T19:07:49.179Z,20.20
2023-04-18T19:10:17.796Z,22.05
2023-04-18T19:12:46.320Z,23.00
2023-04-18T19:15:14.893Z,20.27
2023-04-18T19:17:43.407Z,20.82
2023-04-18T19:20:11.868Z,21.85
2023-04-18T19:22:40.588Z,21.17
2023-04-18T19:25:09.678Z,21.77
2023-04-18T19:27:38.194Z,21.20
2023-04-18T19:30:07.434Z,20.66
2023-04-18T19:32:35.987Z,21.01
2023-04-18T19:35:05.757Z,20.01
2023-04-18T19:37:34.179Z,21.19
2023-04-18T19:40:02.801Z,22.80
2023-04-18T19:42:31.693Z,20.94
2023-04-18T19:45:00.468Z,20.61
2023-04-18T19:47:32.183Z,20.75
2023-04-18T19:50:01.400Z,20.58
2023-04-18T19:52:29.796Z,20.87
2023-04-18T19:54:58.207Z,21.31
2023-04-18T19:57:28.818Z,21.32
2023-04-18T19:59:57.279Z,22.41
2023-04-18T20:02:25.954Z,21.97
2023-04-18T20:04:54.661Z,21.16
2023-04-18T20:07:24.217Z,21.92
2023-04-18T20:09:54.928Z,22.10
2023-04-18T20:12:23.676Z,21.23
2023-04-18T20:14:52.501Z,22.09
2023-04-18T20:17:21.241Z,19.88
2023-04-18T20:19:51.051Z,19.68
2023-04-18T20:22:19.851Z,21.00
2023-04-18T20:24:49.134Z,22.04
2023-04-18T20:27:20.440Z,21.43
2023-04-18T20:29:49.099Z,20.65
2023-04-18T20:32:17.608Z,21.27
2023-04-18T20:34:46.702Z,21.84
2023-04-18T20:37:18.679Z,21.85
2023-04-18T20:39:47.556Z,22.26
2023-04-18T20:42:17.540Z,21.40
2023-04-18T20:44:46.722Z,20.77
2023-04-18T20:47:15.948Z,20.75
2023-04-18T20:49:44.595Z,21.57
2023-04-18T20:52:14.524Z,20.15
2023-04-18T20:54:43.074Z,21.43
2023-04-18T20:57:11.618Z,21.39
2023-04-18T20:59:40.258Z,20.07
2023-04-18T21:02:08.978Z,20.18
2023-04-18T21:04:37.698Z,20.67
2023-04-18T21:07:06.361Z,20.69
2023-04-18T21:09:36.723Z,21.62
2023-04-18T21:12:05.673Z,21.51
2023-04-18T21:14:34.166Z,20.94
2023-04-18T21:17:02.781Z,22.17
2023-04-18T21:19:31.383Z,20.76
2023-04-18T21:21:59.794Z,20.29
2023-04-18T21:24:28.247Z,21.28
2023-04-18T21:26:57.728Z,20.40
2023-04-18T21:29:26.190Z,21.27
2023-04-18T21:31:54.839Z,21.13
2023-04-18T21:34:23.393Z,21.54
2023-04-18T21:36:51.898Z,21.29
2023-04-18T21:39:20.335Z,20.87
2023-04-18T21:41:48.763Z,19.74
2023-04-18T21:44:18.868Z,20.20
2023-04-18T21:46:47.276Z,19.52
2023-04-18T21:49:15.934Z,20.75
2023-04-18T21:51:44.981Z,19.81
2023-04-18T21:54:13.861Z,18.92
2023-04-18T21:56:43.095Z,20.93
2023-04-18T21:59:11.582Z,19.25
2023-04-18T22:01:40.061Z,20.80
2023-04-18T22:04:09.017Z,20.08
2023-04-18T22:06:37.820Z,18.54
2023-04-18T22:09:06.406Z,19.22
2023-04-18T22:11:34.792Z,19.81
2023-04-18T22:14:03.318Z,20.62
2023-04-18T22:16:33.319Z,20.51
2023-04-18T22:19:01.898Z,19.44
2023-04-18T22:21:31.310Z,20.56
2023-04-18T22:23:59.748Z,18.64
2023-04-18T22:26:28.313Z,20.27
2023-04-18T22:28:56.768Z,19.02
2023-04-18T22:31:25.428Z,20.05
2023-04-18T22:33:54.040Z,20.92
2023-04-18T22:36:22.607Z,20.57
2023-04-18T22:38:51.029Z,20.67
2023-04-18T22:41:19.559Z,20.75
2023-04-18T22:43:49.073Z,20.71
2023-04-18T22:46:17.530Z,21.07
2023-04-18T22:48:46.231Z,20.67
2023-04-18T22:51:14.805Z,20.26
2023-04-18T22:53:43.545Z,20.76
2023-04-18T22:56:12.001Z,20.58
2023-04-18T22:58:40.470Z,20.22
2023-04-18T23:01:08.865Z,19.98
2023-04-18T23:03:37.359Z,19.70
2023-04-18T23:06:08.802Z,20.04
2023-04-18T23:08:37.296Z,20.25
2023-04-18T23:11:05.914Z,20.37
2023-04-18T23:13:34.417Z,20.57
2023-04-18T23:16:02.872Z,20.61
2023-04-18T23:18:31.379Z,20.64
2023-04-18T23:21:00.260Z,20.23
2023-04-18T23:23:28.764Z,20.31
2023-04-18T23:25:57.497Z,19.70
2023-04-18T23:28:26.209Z,20.75
2023-04-18T23:30:54.587Z,19.35
2023-04-18T23:33:23.004Z,20.36
2023-04-18T23:35:51.462Z,20.17
2023-04-18T23:38:20.020Z,20.94
2023-04-18T23:40:48.493Z,19.36
2023-04-18T23:43:16.934Z,20.41
2023-04-18T23:45:45.474Z,20.90
2023-04-18T23:48:13.946Z,19.87
2023-04-18T23:50:47.313Z,20.58
2023-04-18T23:53:19.539Z,21.20
2023-04-18T23:55:50.593Z,19.80
2023-04-18T23:58:19.429Z,20.68
